sensor_id;sensor_type;location;lat;lon;timestamp;P1;durP1;ratioP1;P2;durP2;ratioP2
50511;SDS011;36446;47.642;-3.018;2023-12-22T00:00:16;29.67;;;18.90;;
50511;SDS011;36446;47.642;-3.018;2023-12-22T00:02:43;22.45;;;14.57;;
50511;SDS011;36446;47.642;-3.018;2023-12-22T00:05:10;18.08;;;11.63;;
50511;SDS011;36446;47.642;-3.018;2023-12-22T00:07:38;14.63;;;9.17;;
50511;SDS011;36446;47.642;-3.018;2023-12-22T00:10:05;16.52;;;9.52;;
50511;SDS011;36446;47.642;-3.018;2023-12-22T00:12:32;15.02;;;8.95;;
50511;SDS011;36446;47.642;-3.018;2023-12-22T00:15:01;13.85;;;8.35;;
50511;SDS011;36446;47.642;-3.018;2023-12-22T00:17:28;14.67;;;8.63;;
50511;SDS011;36446;47.642;-3.018;2023-12-22T00:19:55;13.83;;;8.67;;
50511;SDS011;36446;47.642;-3.018;2023-12-22T00:22:24;12.68;;;8.07;;
50511;SDS011;36446;47.642;-3.018;2023-12-22T00:24:52;13.73;;;8.40;;
50511;SDS011;36446;47.642;-3.018;2023-12-22T00:27:19;14.63;;;8.73;;
50511;SDS011;36446;47.642;-3.018;2023-12-22T00:29:46;14.82;;;8.52;;
50511;SDS011;36446;47.642;-3.018;2023-12-22T00:32:14;14.15;;;8.38;;
50511;SDS011;36446;47.642;-3.018;2023-12-22T00:34:42;13.60;;;8.18;;
50511;SDS011;36446;47.642;-3.018;2023-12-22T00:37:09;12.27;;;8.10;;
50511;SDS011;36446;47.642;-3.018;2023-12-22T00:39:37;13.37;;;8.03;;
50511;SDS011;36446;47.642;-3.018;2023-12-22T00:42:04;11.50;;;7.63;;
50511;SDS011;36446;47.642;-3.018;2023-12-22T00:44:31;11.63;;;7.20;;
50511;SDS011;36446;47.642;-3.018;2023-12-22T00:46:58;11.05;;;7.15;;
50511;SDS011;36446;47.642;-3.018;2023-12-22T00:49:27;11.07;;;6.57;;
50511;SDS011;36446;47.642;-3.018;2023-12-22T00:51:54;10.25;;;6.22;;
50511;SDS011;36446;47.642;-3.018;2023-12-22T00:54:21;9.32;;;5.82;;
50511;SDS011;36446;47.642;-3.018;2023-12-22T00:56:50;8.73;;;5.63;;
50511;SDS011;36446;47.642;-3.018;2023-12-22T00:59:17;8.73;;;5.30;;
50511;SDS011;36446;47.642;-3.018;2023-12-22T01:01:44;9.55;;;5.90;;
50511;SDS011;36446;47.642;-3.018;2023-12-22T01:04:11;8.88;;;5.47;;
50511;SDS011;36446;47.642;-3.018;2023-12-22T01:06:41;9.02;;;5.82;;
50511;SDS011;36446;47.642;-3.018;2023-12-22T01:09:08;8.47;;;5.47;;
50511;SDS011;36446;47.642;-3.018;2023-12-22T01:11:35;8.88;;;5.60;;
50511;SDS011;36446;47.642;-3.018;2023-12-22T01:14:02;8.93;;;5.20;;
50511;SDS011;36446;47.642;-3.018;2023-12-22T01:16:31;8.80;;;5.40;;
50511;SDS011;36446;47.642;-3.018;2023-12-22T01:18:58;8.05;;;4.88;;
50511;SDS011;36446;47.642;-3.018;2023-12-22T01:21:24;8.45;;;4.90;;
50511;SDS011;36446;47.642;-3.018;2023-12-22T01:23:53;7.47;;;4.85;;
50511;SDS011;36446;47.642;-3.018;2023-12-22T01:26:20;7.22;;;4.45;;
50511;SDS011;36446;47.642;-3.018;2023-12-22T01:28:47;8.35;;;4.90;;
50511;SDS011;36446;47.642;-3.018;2023-12-22T01:31:14;6.93;;;4.65;;
50511;SDS011;36446;47.642;-3.018;2023-12-22T01:33:41;7.05;;;4.22;;
50511;SDS011;36446;47.642;-3.018;2023-12-22T01:36:08;6.03;;;3.72;;
50511;SDS011;36446;47.642;-3.018;2023-12-22T01:38:36;6.75;;;3.95;;
50511;SDS011;36446;47.642;-3.018;2023-12-22T01:41:04;6.88;;;3.80;;
50511;SDS011;36446;47.642;-3.018;2023-12-22T01:43:31;5.97;;;3.60;;
50511;SDS011;36446;47.642;-3.018;2023-12-22T01:45:58;6.28;;;4.05;;
50511;SDS011;36446;47.642;-3.018;2023-12-22T01:48:26;6.22;;;3.67;;
50511;SDS011;36446;47.642;-3.018;2023-12-22T01:50:54;6.13;;;3.43;;
50511;SDS011;36446;47.642;-3.018;2023-12-22T01:53:23;5.53;;;3.42;;
50511;SDS011;36446;47.642;-3.018;2023-12-22T01:55:51;6.50;;;3.70;;
50511;SDS011;36446;47.642;-3.018;2023-12-22T01:58:20;4.60;;;2.90;;
50511;SDS011;36446;47.642;-3.018;2023-12-22T02:00:47;6.77;;;3.40;;
50511;SDS011;36446;47.642;-3.018;2023-12-22T02:03:14;5.13;;;3.05;;
50511;SDS011;36446;47.642;-3.018;2023-12-22T02:05:41;5.05;;;3.10;;
50511;SDS011;36446;47.642;-3.018;2023-12-22T02:08:09;5.05;;;3.05;;
50511;SDS011;36446;47.642;-3.018;2023-12-22T02:10:36;5.43;;;3.42;;
50511;SDS011;36446;47.642;-3.018;2023-12-22T02:13:04;4.35;;;3.00;;
50511;SDS011;36446;47.642;-3.018;2023-12-22T02:15:33;4.65;;;2.70;;
50511;SDS011;36446;47.642;-3.018;2023-12-22T02:18:02;4.45;;;2.60;;
50511;SDS011;36446;47.642;-3.018;2023-12-22T02:20:32;4.35;;;2.53;;
50511;SDS011;36446;47.642;-3.018;2023-12-22T02:23:00;4.22;;;2.28;;
50511;SDS011;36446;47.642;-3.018;2023-12-22T02:25:27;3.80;;;2.28;;
50511;SDS011;36446;47.642;-3.018;2023-12-22T02:27:57;3.95;;;2.22;;
50511;SDS011;36446;47.642;-3.018;2023-12-22T02:30:25;4.25;;;2.28;;
50511;SDS011;36446;47.642;-3.018;2023-12-22T02:32:54;2.95;;;2.15;;
50511;SDS011;36446;47.642;-3.018;2023-12-22T02:35:23;3.95;;;2.40;;
50511;SDS011;36446;47.642;-3.018;2023-12-22T02:37:51;3.10;;;1.95;;
50511;SDS011;36446;47.642;-3.018;2023-12-22T02:40:21;3.78;;;2.20;;
50511;SDS011;36446;47.642;-3.018;2023-12-22T02:42:48;3.28;;;1.95;;
50511;SDS011;36446;47.642;-3.018;2023-12-22T02:45:16;3.63;;;1.80;;
50511;SDS011;36446;47.642;-3.018;2023-12-22T02:47:44;3.42;;;1.80;;
50511;SDS011;36446;47.642;-3.018;2023-12-22T02:50:11;3.45;;;1.90;;
50511;SDS011;36446;47.642;-3.018;2023-12-22T02:52:39;3.28;;;1.90;;
50511;SDS011;36446;47.642;-3.018;2023-12-22T02:55:07;2.88;;;1.85;;
50511;SDS011;36446;47.642;-3.018;2023-12-22T02:57:35;2.87;;;1.53;;
50511;SDS011;36446;47.642;-3.018;2023-12-22T03:00:03;2.58;;;1.40;;
50511;SDS011;36446;47.642;-3.018;2023-12-22T03:02:30;3.45;;;1.67;;
50511;SDS011;36446;47.642;-3.018;2023-12-22T03:04:58;3.13;;;1.40;;
50511;SDS011;36446;47.642;-3.018;2023-12-22T03:07:25;2.88;;;1.42;;
50511;SDS011;36446;47.642;-3.018;2023-12-22T03:09:52;3.20;;;1.33;;
50511;SDS011;36446;47.642;-3.018;2023-12-22T03:12:19;3.33;;;1.40;;
50511;SDS011;36446;47.642;-3.018;2023-12-22T03:14:48;3.00;;;1.35;;
50511;SDS011;36446;47.642;-3.018;2023-12-22T03:17:15;2.45;;;1.45;;
50511;SDS011;36446;47.642;-3.018;2023-12-22T03:19:42;2.43;;;1.40;;
50511;SDS011;36446;47.642;-3.018;2023-12-22T03:22:09;2.80;;;1.30;;
50511;SDS011;36446;47.642;-3.018;2023-12-22T03:24:36;2.30;;;1.38;;
50511;SDS011;36446;47.642;-3.018;2023-12-22T03:27:03;2.88;;;1.45;;
50511;SDS011;36446;47.642;-3.018;2023-12-22T03:29:31;1.80;;;1.20;;
50511;SDS011;36446;47.642;-3.018;2023-12-22T03:31:59;2.35;;;1.40;;
50511;SDS011;36446;47.642;-3.018;2023-12-22T03:34:26;2.00;;;1.23;;
50511;SDS011;36446;47.642;-3.018;2023-12-22T03:36:54;2.00;;;1.20;;
50511;SDS011;36446;47.642;-3.018;2023-12-22T03:39:21;2.90;;;1.33;;
50511;SDS011;36446;47.642;-3.018;2023-12-22T03:41:48;1.73;;;1.00;;
50511;SDS011;36446;47.642;-3.018;2023-12-22T03:44:15;2.50;;;1.33;;
50511;SDS011;36446;47.642;-3.018;2023-12-22T03:46:42;3.35;;;0.90;;
50511;SDS011;36446;47.642;-3.018;2023-12-22T03:49:11;1.95;;;1.00;;
50511;SDS011;36446;47.642;-3.018;2023-12-22T03:51:38;1.13;;;0.80;;
50511;SDS011;36446;47.642;-3.018;2023-12-22T03:54:06;1.95;;;1.02;;
50511;SDS011;36446;47.642;-3.018;2023-12-22T03:56:35;1.35;;;1.00;;
50511;SDS011;36446;47.642;-3.018;2023-12-22T03:59:02;1.95;;;1.00;;
50511;SDS011;36446;47.642;-3.018;2023-12-22T04:01:29;2.58;;;1.00;;
50511;SDS011;36446;47.642;-3.018;2023-12-22T04:03:56;1.50;;;0.80;;
50511;SDS011;36446;47.642;-3.018;2023-12-22T04:06:25;2.10;;;1.20;;
50511;SDS011;36446;47.642;-3.018;2023-12-22T04:08:54;2.25;;;0.90;;
50511;SDS011;36446;47.642;-3.018;2023-12-22T04:11:21;1.73;;;0.95;;
50511;SDS011;36446;47.642;-3.018;2023-12-22T04:13:48;2.00;;;1.00;;
50511;SDS011;36446;47.642;-3.018;2023-12-22T04:16:15;1.10;;;0.70;;
50511;SDS011;36446;47.642;-3.018;2023-12-22T04:18:42;1.30;;;0.80;;
50511;SDS011;36446;47.642;-3.018;2023-12-22T04:21:10;1.20;;;0.70;;
50511;SDS011;36446;47.642;-3.018;2023-12-22T04:23:38;2.00;;;0.75;;
50511;SDS011;36446;47.642;-3.018;2023-12-22T04:26:05;2.38;;;0.80;;
50511;SDS011;36446;47.642;-3.018;2023-12-22T04:28:32;1.30;;;0.90;;
50511;SDS011;36446;47.642;-3.018;2023-12-22T04:31:00;1.55;;;0.90;;
50511;SDS011;36446;47.642;-3.018;2023-12-22T04:33:27;2.40;;;0.70;;
50511;SDS011;36446;47.642;-3.018;2023-12-22T04:35:54;2.17;;;0.90;;
50511;SDS011;36446;47.642;-3.018;2023-12-22T04:38:21;1.42;;;0.70;;
50511;SDS011;36446;47.642;-3.018;2023-12-22T04:40:50;1.27;;;0.80;;
50511;SDS011;36446;47.642;-3.018;2023-12-22T04:43:17;1.30;;;0.70;;
50511;SDS011;36446;47.642;-3.018;2023-12-22T04:45:44;1.20;;;0.70;;
50511;SDS011;36446;47.642;-3.018;2023-12-22T04:48:11;1.95;;;0.68;;
50511;SDS011;36446;47.642;-3.018;2023-12-22T04:50:39;1.27;;;0.70;;
50511;SDS011;36446;47.642;-3.018;2023-12-22T04:53:06;2.95;;;0.75;;
50511;SDS011;36446;47.642;-3.018;2023-12-22T04:55:33;1.45;;;0.70;;
50511;SDS011;36446;47.642;-3.018;2023-12-22T04:58:01;1.95;;;0.77;;
50511;SDS011;36446;47.642;-3.018;2023-12-22T05:00:29;1.53;;;0.60;;
50511;SDS011;36446;47.642;-3.018;2023-12-22T05:02:56;1.13;;;0.60;;
50511;SDS011;36446;47.642;-3.018;2023-12-22T05:05:23;2.37;;;0.80;;
50511;SDS011;36446;47.642;-3.018;2023-12-22T05:07:50;1.40;;;0.60;;
50511;SDS011;36446;47.642;-3.018;2023-12-22T05:10:17;1.30;;;0.60;;
50511;SDS011;36446;47.642;-3.018;2023-12-22T05:12:45;1.70;;;0.60;;
50511;SDS011;36446;47.642;-3.018;2023-12-22T05:15:13;2.08;;;0.57;;
50511;SDS011;36446;47.642;-3.018;2023-12-22T05:17:41;1.38;;;0.60;;
50511;SDS011;36446;47.642;-3.018;2023-12-22T05:20:09;1.40;;;0.70;;
50511;SDS011;36446;47.642;-3.018;2023-12-22T05:22:36;1.57;;;0.60;;
50511;SDS011;36446;47.642;-3.018;2023-12-22T05:25:04;1.38;;;0.60;;
50511;SDS011;36446;47.642;-3.018;2023-12-22T05:27:31;1.20;;;0.60;;
50511;SDS011;36446;47.642;-3.018;2023-12-22T05:29:58;1.33;;;0.60;;
50511;SDS011;36446;47.642;-3.018;2023-12-22T05:32:29;1.10;;;0.57;;
50511;SDS011;36446;47.642;-3.018;2023-12-22T05:34:56;1.45;;;0.50;;
50511;SDS011;36446;47.642;-3.018;2023-12-22T05:37:23;1.20;;;0.55;;
50511;SDS011;36446;47.642;-3.018;2023-12-22T05:39:51;1.10;;;0.65;;
50511;SDS011;36446;47.642;-3.018;2023-12-22T05:42:18;1.00;;;0.40;;
50511;SDS011;36446;47.642;-3.018;2023-12-22T05:44:45;1.00;;;0.52;;
50511;SDS011;36446;47.642;-3.018;2023-12-22T05:47:14;1.88;;;0.63;;
50511;SDS011;36446;47.642;-3.018;2023-12-22T05:49:43;1.05;;;0.47;;
50511;SDS011;36446;47.642;-3.018;2023-12-22T05:52:11;1.73;;;0.45;;
50511;SDS011;36446;47.642;-3.018;2023-12-22T05:54:39;1.60;;;0.50;;
50511;SDS011;36446;47.642;-3.018;2023-12-22T05:57:06;1.33;;;0.50;;
50511;SDS011;36446;47.642;-3.018;2023-12-22T05:59:33;1.17;;;0.60;;
50511;SDS011;36446;47.642;-3.018;2023-12-22T06:02:00;1.00;;;0.50;;
50511;SDS011;36446;47.642;-3.018;2023-12-22T06:04:28;1.23;;;0.55;;
50511;SDS011;36446;47.642;-3.018;2023-12-22T06:06:56;0.90;;;0.50;;
50511;SDS011;36446;47.642;-3.018;2023-12-22T06:09:23;1.75;;;0.50;;
50511;SDS011;36446;47.642;-3.018;2023-12-22T06:11:50;1.23;;;0.60;;
50511;SDS011;36446;47.642;-3.018;2023-12-22T06:14:18;1.83;;;0.60;;
50511;SDS011;36446;47.642;-3.018;2023-12-22T06:16:45;0.68;;;0.50;;
50511;SDS011;36446;47.642;-3.018;2023-12-22T06:19:12;1.00;;;0.40;;
50511;SDS011;36446;47.642;-3.018;2023-12-22T06:21:39;0.80;;;0.40;;
50511;SDS011;36446;47.642;-3.018;2023-12-22T06:24:08;0.95;;;0.55;;
50511;SDS011;36446;47.642;-3.018;2023-12-22T06:26:35;1.48;;;0.60;;
50511;SDS011;36446;47.642;-3.018;2023-12-22T06:29:03;1.50;;;0.50;;
50511;SDS011;36446;47.642;-3.018;2023-12-22T06:31:30;0.90;;;0.50;;
50511;SDS011;36446;47.642;-3.018;2023-12-22T06:33:57;1.52;;;0.40;;
50511;SDS011;36446;47.642;-3.018;2023-12-22T06:36:27;0.93;;;0.60;;
50511;SDS011;36446;47.642;-3.018;2023-12-22T06:38:56;1.67;;;0.67;;
50511;SDS011;36446;47.642;-3.018;2023-12-22T06:41:25;1.10;;;0.55;;
50511;SDS011;36446;47.642;-3.018;2023-12-22T06:43:52;1.38;;;0.68;;
50511;SDS011;36446;47.642;-3.018;2023-12-22T06:46:20;4.97;;;0.88;;
50511;SDS011;36446;47.642;-3.018;2023-12-22T06:48:48;1.40;;;0.50;;
50511;SDS011;36446;47.642;-3.018;2023-12-22T06:51:18;2.17;;;0.60;;
50511;SDS011;36446;47.642;-3.018;2023-12-22T06:53:46;3.72;;;0.73;;
50511;SDS011;36446;47.642;-3.018;2023-12-22T06:56:16;1.73;;;0.60;;
50511;SDS011;36446;47.642;-3.018;2023-12-22T06:58:44;4.55;;;0.70;;
50511;SDS011;36446;47.642;-3.018;2023-12-22T07:01:17;2.63;;;0.70;;
50511;SDS011;36446;47.642;-3.018;2023-12-22T07:03:45;6.65;;;0.88;;
50511;SDS011;36446;47.642;-3.018;2023-12-22T07:06:13;5.45;;;1.25;;
50511;SDS011;36446;47.642;-3.018;2023-12-22T07:08:40;8.70;;;1.20;;
50511;SDS011;36446;47.642;-3.018;2023-12-22T07:11:07;9.40;;;1.38;;
50511;SDS011;36446;47.642;-3.018;2023-12-22T07:13:35;7.85;;;1.20;;
50511;SDS011;36446;47.642;-3.018;2023-12-22T07:16:03;5.55;;;1.25;;
50511;SDS011;36446;47.642;-3.018;2023-12-22T07:18:31;5.57;;;1.13;;
50511;SDS011;36446;47.642;-3.018;2023-12-22T07:21:00;7.27;;;1.30;;
50511;SDS011;36446;47.642;-3.018;2023-12-22T07:23:27;6.80;;;1.30;;
50511;SDS011;36446;47.642;-3.018;2023-12-22T07:25:54;7.15;;;1.23;;
50511;SDS011;36446;47.642;-3.018;2023-12-22T07:28:21;5.72;;;1.30;;
50511;SDS011;36446;47.642;-3.018;2023-12-22T07:30:48;4.60;;;1.10;;
50511;SDS011;36446;47.642;-3.018;2023-12-22T07:33:17;6.25;;;1.30;;
50511;SDS011;36446;47.642;-3.018;2023-12-22T07:35:44;3.25;;;1.00;;
50511;SDS011;36446;47.642;-3.018;2023-12-22T07:38:11;6.03;;;1.23;;
50511;SDS011;36446;47.642;-3.018;2023-12-22T07:40:39;6.53;;;1.30;;
50511;SDS011;36446;47.642;-3.018;2023-12-22T07:43:06;3.42;;;1.08;;
50511;SDS011;36446;47.642;-3.018;2023-12-22T07:45:33;4.15;;;1.10;;
50511;SDS011;36446;47.642;-3.018;2023-12-22T07:48:01;7.72;;;1.30;;
50511;SDS011;36446;47.642;-3.018;2023-12-22T07:50:29;8.90;;;1.95;;
50511;SDS011;36446;47.642;-3.018;2023-12-22T07:52:56;6.20;;;1.70;;
50511;SDS011;36446;47.642;-3.018;2023-12-22T07:55:24;14.37;;;2.10;;
50511;SDS011;36446;47.642;-3.018;2023-12-22T07:57:51;8.20;;;1.60;;
50511;SDS011;36446;47.642;-3.018;2023-12-22T08:00:18;8.70;;;1.60;;
50511;SDS011;36446;47.642;-3.018;2023-12-22T08:02:45;9.20;;;2.05;;
50511;SDS011;36446;47.642;-3.018;2023-12-22T08:05:13;7.95;;;1.77;;
50511;SDS011;36446;47.642;-3.018;2023-12-22T08:07:42;8.32;;;2.05;;
50511;SDS011;36446;47.642;-3.018;2023-12-22T08:10:09;5.68;;;1.60;;
50511;SDS011;36446;47.642;-3.018;2023-12-22T08:12:36;5.75;;;1.75;;
50511;SDS011;36446;47.642;-3.018;2023-12-22T08:15:03;8.65;;;1.83;;
50511;SDS011;36446;47.642;-3.018;2023-12-22T08:17:31;5.45;;;1.58;;
50511;SDS011;36446;47.642;-3.018;2023-12-22T08:19:59;7.33;;;1.67;;
50511;SDS011;36446;47.642;-3.018;2023-12-22T08:22:26;7.70;;;1.98;;
50511;SDS011;36446;47.642;-3.018;2023-12-22T08:24:54;5.35;;;1.55;;
50511;SDS011;36446;47.642;-3.018;2023-12-22T08:27:22;6.78;;;1.70;;
50511;SDS011;36446;47.642;-3.018;2023-12-22T08:29:49;13.77;;;2.40;;
50511;SDS011;36446;47.642;-3.018;2023-12-22T08:32:16;12.60;;;2.17;;
50511;SDS011;36446;47.642;-3.018;2023-12-22T08:34:44;8.47;;;1.80;;
50511;SDS011;36446;47.642;-3.018;2023-12-22T08:37:12;6.72;;;1.70;;
50511;SDS011;36446;47.642;-3.018;2023-12-22T08:39:39;9.40;;;2.30;;
50511;SDS011;36446;47.642;-3.018;2023-12-22T08:42:08;8.38;;;1.98;;
50511;SDS011;36446;47.642;-3.018;2023-12-22T08:44:35;8.13;;;2.03;;
50511;SDS011;36446;47.642;-3.018;2023-12-22T08:47:02;8.23;;;2.03;;
50511;SDS011;36446;47.642;-3.018;2023-12-22T08:49:30;7.33;;;2.10;;
50511;SDS011;36446;47.642;-3.018;2023-12-22T08:51:57;8.40;;;2.50;;
50511;SDS011;36446;47.642;-3.018;2023-12-22T08:54:24;8.50;;;2.50;;
50511;SDS011;36446;47.642;-3.018;2023-12-22T08:56:52;6.57;;;2.20;;
50511;SDS011;36446;47.642;-3.018;2023-12-22T08:59:20;7.85;;;2.45;;
50511;SDS011;36446;47.642;-3.018;2023-12-22T09:01:47;9.50;;;2.85;;
50511;SDS011;36446;47.642;-3.018;2023-12-22T09:04:15;9.40;;;2.42;;
50511;SDS011;36446;47.642;-3.018;2023-12-22T09:06:42;6.75;;;2.25;;
50511;SDS011;36446;47.642;-3.018;2023-12-22T09:09:09;9.90;;;2.70;;
50511;SDS011;36446;47.642;-3.018;2023-12-22T09:11:36;11.75;;;2.97;;
50511;SDS011;36446;47.642;-3.018;2023-12-22T09:14:04;8.48;;;2.67;;
50511;SDS011;36446;47.642;-3.018;2023-12-22T09:16:35;9.48;;;2.60;;
50511;SDS011;36446;47.642;-3.018;2023-12-22T09:19:03;10.05;;;2.78;;
50511;SDS011;36446;47.642;-3.018;2023-12-22T09:21:30;8.87;;;2.80;;
50511;SDS011;36446;47.642;-3.018;2023-12-22T09:23:57;7.22;;;2.35;;
50511;SDS011;36446;47.642;-3.018;2023-12-22T09:26:24;8.52;;;2.60;;
50511;SDS011;36446;47.642;-3.018;2023-12-22T09:28:53;8.35;;;2.13;;
50511;SDS011;36446;47.642;-3.018;2023-12-22T09:31:20;8.70;;;2.28;;
50511;SDS011;36446;47.642;-3.018;2023-12-22T09:33:49;6.38;;;1.70;;
50511;SDS011;36446;47.642;-3.018;2023-12-22T09:36:16;10.73;;;2.80;;
50511;SDS011;36446;47.642;-3.018;2023-12-22T09:38:43;12.93;;;2.90;;
50511;SDS011;36446;47.642;-3.018;2023-12-22T09:41:10;12.93;;;2.90;;
50511;SDS011;36446;47.642;-3.018;2023-12-22T09:43:37;9.32;;;2.70;;
50511;SDS011;36446;47.642;-3.018;2023-12-22T09:46:06;10.15;;;2.88;;
50511;SDS011;36446;47.642;-3.018;2023-12-22T09:48:34;10.88;;;2.80;;
50511;SDS011;36446;47.642;-3.018;2023-12-22T09:51:06;7.13;;;2.70;;
50511;SDS011;36446;47.642;-3.018;2023-12-22T09:53:34;6.47;;;1.92;;
50511;SDS011;36446;47.642;-3.018;2023-12-22T09:56:02;6.90;;;2.50;;
50511;SDS011;36446;47.642;-3.018;2023-12-22T09:58:30;8.07;;;2.10;;
50511;SDS011;36446;47.642;-3.018;2023-12-22T10:01:00;6.68;;;2.20;;
50511;SDS011;36446;47.642;-3.018;2023-12-22T10:03:30;6.60;;;2.05;;
50511;SDS011;36446;47.642;-3.018;2023-12-22T10:05:58;7.63;;;2.17;;
50511;SDS011;36446;47.642;-3.018;2023-12-22T10:08:27;8.43;;;2.28;;
50511;SDS011;36446;47.642;-3.018;2023-12-22T10:10:55;6.35;;;2.00;;
50511;SDS011;36446;47.642;-3.018;2023-12-22T10:13:22;8.68;;;2.13;;
50511;SDS011;36446;47.642;-3.018;2023-12-22T10:15:53;5.75;;;1.88;;
50511;SDS011;36446;47.642;-3.018;2023-12-22T10:18:21;9.95;;;2.15;;
50511;SDS011;36446;47.642;-3.018;2023-12-22T10:20:48;8.30;;;2.03;;
50511;SDS011;36446;47.642;-3.018;2023-12-22T10:23:15;8.27;;;2.50;;
50511;SDS011;36446;47.642;-3.018;2023-12-22T10:25:44;6.73;;;2.20;;
50511;SDS011;36446;47.642;-3.018;2023-12-22T10:28:12;7.57;;;2.45;;
50511;SDS011;36446;47.642;-3.018;2023-12-22T10:30:40;6.87;;;2.10;;
50511;SDS011;36446;47.642;-3.018;2023-12-22T10:33:07;7.75;;;2.10;;
50511;SDS011;36446;47.642;-3.018;2023-12-22T10:35:34;5.20;;;1.73;;
50511;SDS011;36446;47.642;-3.018;2023-12-22T10:38:01;7.10;;;2.10;;
50511;SDS011;36446;47.642;-3.018;2023-12-22T10:40:29;5.18;;;1.95;;
50511;SDS011;36446;47.642;-3.018;2023-12-22T10:42:57;7.03;;;2.20;;
50511;SDS011;36446;47.642;-3.018;2023-12-22T10:45:25;8.75;;;2.33;;
50511;SDS011;36446;47.642;-3.018;2023-12-22T10:47:54;7.82;;;2.35;;
50511;SDS011;36446;47.642;-3.018;2023-12-22T10:50:21;5.65;;;1.70;;
50511;SDS011;36446;47.642;-3.018;2023-12-22T10:52:51;5.68;;;1.77;;
50511;SDS011;36446;47.642;-3.018;2023-12-22T10:55:18;5.72;;;1.77;;
50511;SDS011;36446;47.642;-3.018;2023-12-22T10:57:46;6.50;;;1.90;;
50511;SDS011;36446;47.642;-3.018;2023-12-22T11:00:15;6.30;;;1.90;;
50511;SDS011;36446;47.642;-3.018;2023-12-22T11:02:43;5.60;;;1.73;;
50511;SDS011;36446;47.642;-3.018;2023-12-22T11:05:14;5.28;;;2.10;;
50511;SDS011;36446;47.642;-3.018;2023-12-22T11:07:45;6.47;;;2.17;;
50511;SDS011;36446;47.642;-3.018;2023-12-22T11:10:14;6.80;;;2.17;;
50511;SDS011;36446;47.642;-3.018;2023-12-22T11:12:43;6.30;;;1.85;;
50511;SDS011;36446;47.642;-3.018;2023-12-22T11:15:11;5.90;;;2.10;;
50511;SDS011;36446;47.642;-3.018;2023-12-22T11:17:39;4.15;;;1.70;;
50511;SDS011;36446;47.642;-3.018;2023-12-22T11:20:09;7.90;;;2.00;;
50511;SDS011;36446;47.642;-3.018;2023-12-22T11:22:36;4.82;;;1.90;;
50511;SDS011;36446;47.642;-3.018;2023-12-22T11:25:04;5.65;;;2.00;;
50511;SDS011;36446;47.642;-3.018;2023-12-22T11:27:31;6.33;;;2.27;;
50511;SDS011;36446;47.642;-3.018;2023-12-22T11:30:00;6.93;;;2.20;;
50511;SDS011;36446;47.642;-3.018;2023-12-22T11:32:27;6.85;;;2.22;;
50511;SDS011;36446;47.642;-3.018;2023-12-22T11:34:57;5.15;;;1.70;;
50511;SDS011;36446;47.642;-3.018;2023-12-22T11:37:26;5.15;;;1.80;;
50511;SDS011;36446;47.642;-3.018;2023-12-22T11:39:53;6.65;;;2.00;;
50511;SDS011;36446;47.642;-3.018;2023-12-22T11:42:21;6.35;;;1.73;;
50511;SDS011;36446;47.642;-3.018;2023-12-22T11:44:50;7.22;;;2.30;;
50511;SDS011;36446;47.642;-3.018;2023-12-22T11:47:21;7.10;;;2.22;;
50511;SDS011;36446;47.642;-3.018;2023-12-22T11:49:49;6.40;;;1.75;;
50511;SDS011;36446;47.642;-3.018;2023-12-22T11:52:18;6.10;;;1.95;;
50511;SDS011;36446;47.642;-3.018;2023-12-22T11:54:46;6.65;;;1.95;;
50511;SDS011;36446;47.642;-3.018;2023-12-22T11:57:30;5.68;;;2.00;;
50511;SDS011;36446;47.642;-3.018;2023-12-22T11:59:58;4.32;;;1.70;;
50511;SDS011;36446;47.642;-3.018;2023-12-22T12:02:25;6.10;;;2.08;;
50511;SDS011;36446;47.642;-3.018;2023-12-22T12:04:53;5.50;;;1.88;;
50511;SDS011;36446;47.642;-3.018;2023-12-22T12:07:40;5.65;;;1.98;;
50511;SDS011;36446;47.642;-3.018;2023-12-22T12:10:09;5.15;;;2.00;;
50511;SDS011;36446;47.642;-3.018;2023-12-22T12:12:36;5.80;;;2.00;;
50511;SDS011;36446;47.642;-3.018;2023-12-22T12:15:08;5.68;;;1.90;;
50511;SDS011;36446;47.642;-3.018;2023-12-22T12:17:39;5.05;;;1.52;;
50511;SDS011;36446;47.642;-3.018;2023-12-22T12:20:07;4.68;;;1.50;;
50511;SDS011;36446;47.642;-3.018;2023-12-22T12:22:35;3.35;;;1.50;;
50511;SDS011;36446;47.642;-3.018;2023-12-22T12:25:07;5.40;;;1.75;;
50511;SDS011;36446;47.642;-3.018;2023-12-22T12:27:36;4.38;;;1.65;;
50511;SDS011;36446;47.642;-3.018;2023-12-22T12:30:06;4.18;;;1.70;;
50511;SDS011;36446;47.642;-3.018;2023-12-22T12:32:34;5.40;;;1.83;;
50511;SDS011;36446;47.642;-3.018;2023-12-22T12:35:02;4.23;;;1.50;;
50511;SDS011;36446;47.642;-3.018;2023-12-22T12:37:30;5.03;;;1.43;;
50511;SDS011;36446;47.642;-3.018;2023-12-22T12:39:58;2.83;;;1.27;;
50511;SDS011;36446;47.642;-3.018;2023-12-22T12:42:28;2.70;;;1.37;;
50511;SDS011;36446;47.642;-3.018;2023-12-22T12:44:56;2.72;;;1.13;;
50511;SDS011;36446;47.642;-3.018;2023-12-22T12:47:24;3.72;;;1.20;;
50511;SDS011;36446;47.642;-3.018;2023-12-22T12:49:57;4.20;;;1.40;;
50511;SDS011;36446;47.642;-3.018;2023-12-22T12:52:25;3.75;;;1.10;;
50511;SDS011;36446;47.642;-3.018;2023-12-22T12:54:52;3.38;;;1.25;;
50511;SDS011;36446;47.642;-3.018;2023-12-22T12:57:20;3.42;;;1.10;;
50511;SDS011;36446;47.642;-3.018;2023-12-22T12:59:50;3.58;;;1.25;;
50511;SDS011;36446;47.642;-3.018;2023-12-22T13:02:17;2.67;;;1.02;;
50511;SDS011;36446;47.642;-3.018;2023-12-22T13:04:45;3.00;;;1.27;;
50511;SDS011;36446;47.642;-3.018;2023-12-22T13:07:12;3.85;;;1.40;;
50511;SDS011;36446;47.642;-3.018;2023-12-22T13:09:40;3.97;;;1.30;;
50511;SDS011;36446;47.642;-3.018;2023-12-22T13:12:10;4.07;;;1.40;;
50511;SDS011;36446;47.642;-3.018;2023-12-22T13:14:37;3.55;;;1.52;;
50511;SDS011;36446;47.642;-3.018;2023-12-22T13:17:06;3.15;;;1.27;;
50511;SDS011;36446;47.642;-3.018;2023-12-22T13:19:35;6.15;;;1.60;;
50511;SDS011;36446;47.642;-3.018;2023-12-22T13:22:02;4.28;;;1.17;;
50511;SDS011;36446;47.642;-3.018;2023-12-22T13:24:29;4.15;;;1.33;;
50511;SDS011;36446;47.642;-3.018;2023-12-22T13:27:00;5.20;;;1.40;;
50511;SDS011;36446;47.642;-3.018;2023-12-22T13:29:28;2.42;;;1.27;;
50511;SDS011;36446;47.642;-3.018;2023-12-22T13:31:56;3.00;;;1.20;;
50511;SDS011;36446;47.642;-3.018;2023-12-22T13:34:24;4.28;;;1.33;;
50511;SDS011;36446;47.642;-3.018;2023-12-22T13:36:52;7.38;;;1.40;;
50511;SDS011;36446;47.642;-3.018;2023-12-22T13:39:19;3.72;;;1.23;;
50511;SDS011;36446;47.642;-3.018;2023-12-22T13:41:46;4.05;;;1.30;;
50511;SDS011;36446;47.642;-3.018;2023-12-22T13:44:13;4.90;;;1.40;;
50511;SDS011;36446;47.642;-3.018;2023-12-22T13:46:41;4.13;;;1.20;;
50511;SDS011;36446;47.642;-3.018;2023-12-22T13:49:08;4.60;;;1.00;;
50511;SDS011;36446;47.642;-3.018;2023-12-22T13:51:41;4.60;;;1.27;;
50511;SDS011;36446;47.642;-3.018;2023-12-22T13:54:08;4.65;;;1.10;;
50511;SDS011;36446;47.642;-3.018;2023-12-22T13:56:36;2.72;;;1.10;;
50511;SDS011;36446;47.642;-3.018;2023-12-22T13:59:05;3.53;;;1.30;;
50511;SDS011;36446;47.642;-3.018;2023-12-22T14:01:32;4.43;;;1.20;;
50511;SDS011;36446;47.642;-3.018;2023-12-22T14:04:00;3.03;;;1.02;;
50511;SDS011;36446;47.642;-3.018;2023-12-22T14:06:28;4.73;;;1.30;;
50511;SDS011;36446;47.642;-3.018;2023-12-22T14:08:57;6.57;;;1.58;;
50511;SDS011;36446;47.642;-3.018;2023-12-22T14:11:24;9.50;;;1.67;;
50511;SDS011;36446;47.642;-3.018;2023-12-22T14:13:51;5.88;;;1.20;;
50511;SDS011;36446;47.642;-3.018;2023-12-22T14:16:18;3.50;;;1.10;;
50511;SDS011;36446;47.642;-3.018;2023-12-22T14:18:45;5.35;;;1.38;;
50511;SDS011;36446;47.642;-3.018;2023-12-22T14:21:13;3.72;;;1.35;;
50511;SDS011;36446;47.642;-3.018;2023-12-22T14:23:41;5.95;;;1.52;;
50511;SDS011;36446;47.642;-3.018;2023-12-22T14:26:09;6.93;;;1.35;;
50511;SDS011;36446;47.642;-3.018;2023-12-22T14:28:37;3.28;;;1.30;;
50511;SDS011;36446;47.642;-3.018;2023-12-22T14:31:04;3.25;;;1.50;;
50511;SDS011;36446;47.642;-3.018;2023-12-22T14:33:31;4.68;;;1.80;;
50511;SDS011;36446;47.642;-3.018;2023-12-22T14:35:58;5.35;;;2.33;;